Time;durP1;ratioP1;P1;durP2;ratioP2;P2;SDS_P1;SDS_P2;PMS_P1;PMS_P2;Temp;Humidity;BMP_temperature;BMP_pressure;BME280_temperature;BME280_humidity;BME280_pressure;Samples;Min_cycle;Max_cycle;Signal;HPM_P1;HPM_P2
2022/07/02 00:02:24;;;;;;;;;;;12.70;99.90;;;;;;4956723;28;19930;-71
2022/07/02 00:04:59;;;;;;;;;;;12.70;99.90;;;;;;4930003;29;20280;-72
2022/07/02 00:07:31;;;;;;;;;;;12.70;99.90;;;;;;4947585;28;19923;-72
2022/07/02 00:10:03;;;;;;;;;;;12.70;99.90;;;;;;4937862;29;19926;-72
2022/07/02 00:12:35;;;;;;;;;;;12.60;99.90;;;;;;4926193;29;19926;-72
2022/07/02 00:15:07;;;;;;;;;;;12.50;99.90;;;;;;4919932;29;20299;-72
2022/07/02 00:17:39;;;;;;;;;;;12.40;99.90;;;;;;4939623;29;19926;-72
2022/07/02 00:20:11;;;;;;;;;;;12.40;99.90;;;;;;4953686;28;19927;-71
2022/07/02 00:22:43;;;;;;;;;;;12.40;99.90;;;;;;4941898;28;19923;-72
2022/07/02 00:25:15;;;;;;;;;;;12.30;99.90;;;;;;4907814;29;19923;-72
2022/07/02 00:27:47;;;;;;;;;;;12.30;99.90;;;;;;4945854;28;19965;-71
2022/07/02 00:30:16;;;;;;;;;;;12.30;99.90;;;;;;4938898;28;19926;-72
2022/07/02 00:32:48;;;;;;;;;;;12.30;99.90;;;;;;4946620;29;20314;-72
2022/07/02 00:35:21;;;;;;;;;;;12.30;99.90;;;;;;4920680;29;19923;-72
2022/07/02 00:37:53;;;;;;;;;;;12.40;99.90;;;;;;4939992;28;19926;-72
2022/07/02 00:40:25;;;;;;;;;;;12.40;99.90;;;;;;4946725;28;19922;-72
2022/07/02 00:42:58;;;;;;;;;;;12.30;99.90;;;;;;4940311;29;20021;-72
2022/07/02 00:45:32;;;;;;;;;;;12.20;99.90;;;;;;4947152;28;20318;-72
2022/07/02 00:48:04;;;;;;;;;;;12.20;99.90;;;;;;4936360;29;19927;-72
2022/07/02 00:50:36;;;;;;;;;;;12.10;99.90;;;;;;4944743;28;19922;-72
2022/07/02 00:53:07;;;;;;;;;;;12.00;99.90;;;;;;4951684;29;20302;-72
2022/07/02 00:55:39;;;;;;;;;;;11.90;99.90;;;;;;4939559;28;20344;-72
2022/07/02 00:58:11;;;;;;;;;;;11.90;99.90;;;;;;4924024;29;20469;-72
2022/07/02 01:00:42;;;;;;;;;;;11.90;99.90;;;;;;4934373;29;19922;-72
2022/07/02 01:03:17;;;;;;;;;;;11.90;99.90;;;;;;4941675;29;19930;-72
2022/07/02 01:05:50;;;;;;;;;;;11.90;99.90;;;;;;4948349;28;19941;-72
2022/07/02 01:11:13;;;;;;;;;;;11.90;99.90;;;;;;4941750;29;19969;-72
2022/07/02 01:13:45;;;;;;;;;;;12.00;99.90;;;;;;4938113;29;19926;-72
2022/07/02 01:16:17;;;;;;;;;;;12.00;99.90;;;;;;4944640;28;19922;-72
2022/07/02 01:18:49;;;;;;;;;;;12.00;99.90;;;;;;4940021;29;20021;-72
2022/07/02 01:21:20;;;;;;;;;;;12.00;99.90;;;;;;4946073;29;19945;-71
2022/07/02 01:23:53;;;;;;;;;;;11.90;99.90;;;;;;4948323;28;19922;-72
2022/07/02 01:26:24;;;;;;;;;;;11.80;99.90;;;;;;4944748;28;19934;-72
2022/07/02 01:28:51;;;;;;;;;;;11.80;99.90;;;;;;4921196;29;19934;-72
2022/07/02 01:31:23;;;;;;;;;;;11.80;99.90;;;;;;4948205;29;19972;-72
2022/07/02 01:33:55;;;;;;;;;;;11.80;99.90;;;;;;4950998;29;19946;-72
2022/07/02 01:36:26;;;;;;;;;;;11.80;99.90;;;;;;4933690;28;20402;-72
2022/07/02 01:38:53;;;;;;;;;;;11.70;99.90;;;;;;4947094;29;19926;-72
2022/07/02 01:44:10;;;;;;;;;;;11.50;99.90;;;;;;4940394;28;20421;-71
2022/07/02 01:46:43;;;;;;;;;;;11.40;99.90;;;;;;4938957;29;19958;-72
2022/07/02 01:49:15;;;;;;;;;;;11.40;99.90;;;;;;4940096;29;20021;-72
2022/07/02 01:51:46;;;;;;;;;;;11.40;99.90;;;;;;4939986;28;19923;-72
2022/07/02 01:54:18;;;;;;;;;;;11.30;99.90;;;;;;4931779;29;19923;-72
2022/07/02 01:56:45;;;;;;;;;;;11.30;99.90;;;;;;4936149;29;19930;-72
2022/07/02 01:59:16;;;;;;;;;;;11.20;99.90;;;;;;4951154;29;19926;-72
2022/07/02 02:01:48;;;;;;;;;;;11.20;99.90;;;;;;4938966;29;19937;-72
2022/07/02 02:04:20;;;;;;;;;;;11.10;99.90;;;;;;4956902;28;20299;-71
2022/07/02 02:06:52;;;;;;;;;;;11.00;99.90;;;;;;4965840;29;19986;-71
2022/07/02 02:09:23;;;;;;;;;;;11.00;99.90;;;;;;4962797;29;19918;-71
2022/07/02 02:11:55;;;;;;;;;;;11.00;99.90;;;;;;4955695;28;19933;-72
2022/07/02 02:14:26;;;;;;;;;;;11.00;99.90;;;;;;4943194;29;19926;-72
2022/07/02 02:16:59;;;;;;;;;;;11.10;99.90;;;;;;4942917;29;19926;-72
2022/07/02 02:19:31;;;;;;;;;;;11.10;99.90;;;;;;4955926;28;19930;-72
2022/07/02 02:22:03;;;;;;;;;;;11.00;99.90;;;;;;4952661;28;19922;-72
2022/07/02 02:24:29;;;;;;;;;;;11.00;99.90;;;;;;4942690;28;19937;-72
2022/07/02 02:26:56;;;;;;;;;;;11.00;99.90;;;;;;4946314;29;19923;-72
2022/07/02 02:29:28;;;;;;;;;;;11.00;99.90;;;;;;4945383;28;19934;-72
2022/07/02 02:32:00;;;;;;;;;;;11.00;99.90;;;;;;4944201;28;19922;-72
2022/07/02 02:34:32;;;;;;;;;;;11.10;99.90;;;;;;4938468;28;19934;-71
2022/07/02 02:36:58;;;;;;;;;;;11.10;99.90;;;;;;4923899;29;20435;-72
2022/07/02 02:39:30;;;;;;;;;;;11.10;99.90;;;;;;4945373;28;20046;-72
2022/07/02 02:42:01;;;;;;;;;;;11.10;99.90;;;;;;4939425;29;19922;-72
2022/07/02 02:44:33;;;;;;;;;;;11.10;99.90;;;;;;4924090;29;20305;-72
2022/07/02 02:47:05;;;;;;;;;;;11.10;99.90;;;;;;4955925;28;19923;-72
2022/07/02 02:49:31;;;;;;;;;;;11.00;99.90;;;;;;4960555;28;19961;-72
2022/07/02 02:52:03;;;;;;;;;;;11.10;99.90;;;;;;4946871;29;20000;-72
2022/07/02 02:54:30;;;;;;;;;;;11.10;99.90;;;;;;4940308;28;20462;-73
2022/07/02 02:57:02;;;;;;;;;;;11.00;99.90;;;;;;4939470;29;19923;-72
2022/07/02 02:59:33;;;;;;;;;;;11.00;99.90;;;;;;4945804;28;20387;-72
2022/07/02 03:02:00;;;;;;;;;;;10.90;99.90;;;;;;4945150;28;19929;-71
2022/07/02 03:04:26;;;;;;;;;;;10.90;99.90;;;;;;4921270;29;19927;-72
2022/07/02 03:06:58;;;;;;;;;;;10.90;99.90;;;;;;4938284;29;19926;-72
2022/07/02 03:09:30;;;;;;;;;;;10.90;99.90;;;;;;4940729;29;19973;-72
2022/07/02 03:12:01;;;;;;;;;;;10.80;99.90;;;;;;4937637;29;19922;-72
2022/07/02 03:14:33;;;;;;;;;;;10.70;99.90;;;;;;4939196;28;19934;-72
2022/07/02 03:17:05;;;;;;;;;;;10.70;99.90;;;;;;4953299;28;19933;-72
2022/07/02 03:19:37;;;;;;;;;;;10.70;99.90;;;;;;4943253;28;19972;-72
2022/07/02 03:22:08;;;;;;;;;;;10.70;99.90;;;;;;4940138;29;19926;-71
2022/07/02 03:24:40;;;;;;;;;;;10.70;99.90;;;;;;4937435;28;19929;-72
2022/07/02 03:27:12;;;;;;;;;;;10.80;99.90;;;;;;4936033;29;19927;-72
2022/07/02 03:29:43;;;;;;;;;;;10.80;99.90;;;;;;4926253;29;20372;-72
2022/07/02 03:32:15;;;;;;;;;;;10.80;99.90;;;;;;4934043;29;19970;-72
2022/07/02 03:34:42;;;;;;;;;;;10.70;99.90;;;;;;4946781;28;19930;-72
2022/07/02 03:37:13;;;;;;;;;;;10.60;99.90;;;;;;4922559;29;19926;-72
2022/07/02 03:39:45;;;;;;;;;;;10.60;99.90;;;;;;4936260;29;20372;-72
2022/07/02 03:42:12;;;;;;;;;;;10.60;99.90;;;;;;4941689;29;19923;-72
2022/07/02 03:44:43;;;;;;;;;;;10.60;99.90;;;;;;4921268;29;20303;-72
2022/07/02 03:47:15;;;;;;;;;;;10.60;99.90;;;;;;4944394;29;19922;-72
2022/07/02 03:49:47;;;;;;;;;;;10.60;99.90;;;;;;4948006;29;20303;-72
2022/07/02 03:52:18;;;;;;;;;;;10.60;99.90;;;;;;4944251;28;19949;-72
2022/07/02 03:54:45;;;;;;;;;;;10.60;99.90;;;;;;4920883;29;19923;-72
2022/07/02 03:57:17;;;;;;;;;;;10.50;99.90;;;;;;4942222;29;19969;-72
2022/07/02 03:59:48;;;;;;;;;;;10.60;99.90;;;;;;4942670;29;19933;-72
2022/07/02 04:02:20;;;;;;;;;;;10.60;99.90;;;;;;4929546;29;19927;-72
2022/07/02 04:04:53;;;;;;;;;;;10.70;99.90;;;;;;4934292;29;19930;-72
2022/07/02 04:07:24;;;;;;;;;;;10.70;99.90;;;;;;4943745;28;19923;-72
2022/07/02 04:09:56;;;;;;;;;;;10.70;99.90;;;;;;4938324;28;20052;-73
2022/07/02 04:12:23;;;;;;;;;;;10.70;99.90;;;;;;4946977;29;19930;-72
2022/07/02 04:14:54;;;;;;;;;;;10.80;99.90;;;;;;4935777;28;19929;-72
2022/07/02 04:17:21;;;;;;;;;;;10.80;99.90;;;;;;4938899;29;19930;-72
2022/07/02 04:19:52;;;;;;;;;;;10.90;99.90;;;;;;4951755;29;19933;-72
2022/07/02 04:22:24;;;;;;;;;;;11.00;99.90;;;;;;4929231;29;19922;-73
2022/07/02 04:24:56;;;;;;;;;;;10.90;99.90;;;;;;4938177;28;19959;-72
2022/07/02 04:27:28;;;;;;;;;;;10.90;99.90;;;;;;4934694;28;20299;-72
2022/07/02 04:29:59;;;;;;;;;;;10.80;99.90;;;;;;4947016;29;19934;-72
2022/07/02 04:32:31;;;;;;;;;;;10.80;99.90;;;;;;4952961;28;20589;-72
2022/07/02 04:35:03;;;;;;;;;;;10.80;99.90;;;;;;4942254;29;19929;-72
2022/07/02 04:37:34;;;;;;;;;;;10.80;99.90;;;;;;4927049;29;19922;-72
2022/07/02 04:40:06;;;;;;;;;;;10.80;99.90;;;;;;4949188;28;19978;-72
2022/07/02 04:42:33;;;;;;;;;;;10.80;99.90;;;;;;4948400;29;19927;-72
2022/07/02 04:45:05;;;;;;;;;;;10.80;99.90;;;;;;4943304;28;19929;-72
2022/07/02 04:47:36;;;;;;;;;;;10.80;99.90;;;;;;4941988;29;19923;-72
2022/07/02 04:50:08;;;;;;;;;;;10.80;99.90;;;;;;4962624;28;19933;-72
2022/07/02 04:52:40;;;;;;;;;;;10.80;99.90;;;;;;4947413;29;20021;-72
2022/07/02 04:55:11;;;;;;;;;;;10.80;99.90;;;;;;4944575;28;20356;-73
2022/07/02 04:57:43;;;;;;;;;;;10.90;99.90;;;;;;4919130;29;19934;-73
2022/07/02 05:00:15;;;;;;;;;;;10.80;99.90;;;;;;4935023;29;20033;-72
2022/07/02 05:02:41;;;;;;;;;;;10.80;99.90;;;;;;4942649;29;20285;-72
2022/07/02 05:05:13;;;;;;;;;;;10.80;99.90;;;;;;4945501;28;19935;-72
2022/07/02 05:07:45;;;;;;;;;;;10.80;99.90;;;;;;4945788;28;19933;-72
2022/07/02 05:10:16;;;;;;;;;;;10.80;99.90;;;;;;4947549;29;20283;-72
2022/07/02 05:12:48;;;;;;;;;;;10.90;99.90;;;;;;4943113;29;19923;-72
2022/07/02 05:15:19;;;;;;;;;;;10.90;99.90;;;;;;4937730;28;19927;-72
2022/07/02 05:17:51;;;;;;;;;;;10.90;99.90;;;;;;4938676;29;19926;-72
2022/07/02 05:20:23;;;;;;;;;;;10.90;99.90;;;;;;4958231;28;19930;-72
2022/07/02 05:22:49;;;;;;;;;;;11.00;99.90;;;;;;4937089;28;19938;-72
2022/07/02 05:25:16;;;;;;;;;;;11.00;99.90;;;;;;4938926;29;19946;-72
2022/07/02 05:27:48;;;;;;;;;;;10.90;99.90;;;;;;4950571;29;20308;-72
2022/07/02 05:30:20;;;;;;;;;;;11.00;99.90;;;;;;4944111;29;19925;-72
2022/07/02 05:32:47;;;;;;;;;;;11.10;99.90;;;;;;4975436;28;19923;-72
2022/07/02 05:35:13;;;;;;;;;;;11.10;99.90;;;;;;4940418;28;19931;-72
2022/07/02 05:37:45;;;;;;;;;;;11.20;99.90;;;;;;4944476;29;19922;-72
2022/07/02 05:40:16;;;;;;;;;;;11.20;99.90;;;;;;4945579;28;19926;-72
2022/07/02 05:42:43;;;;;;;;;;;11.20;99.90;;;;;;4946496;28;19928;-72
2022/07/02 05:45:15;;;;;;;;;;;11.30;99.90;;;;;;4931071;28;19923;-72
2022/07/02 05:47:46;;;;;;;;;;;11.40;99.90;;;;;;4941648;28;19926;-72
2022/07/02 05:50:18;;;;;;;;;;;11.50;99.90;;;;;;4919630;28;19938;-72
2022/07/02 05:52:50;;;;;;;;;;;11.50;99.90;;;;;;4916889;29;19931;-73
2022/07/02 05:55:21;;;;;;;;;;;11.60;99.90;;;;;;4931036;29;20388;-72
2022/07/02 05:57:53;;;;;;;;;;;11.70;99.90;;;;;;4936650;29;19923;-72
2022/07/02 06:00:25;;;;;;;;;;;11.70;99.90;;;;;;4939073;29;19926;-73
2022/07/02 06:02:56;;;;;;;;;;;11.80;99.90;;;;;;4938481;29;19926;-72
2022/07/02 06:08:18;;;;;;;;;;;11.90;99.90;;;;;;4937422;29;19934;-73
2022/07/02 06:10:50;;;;;;;;;;;12.00;99.90;;;;;;4951245;28;19927;-73
2022/07/02 06:13:21;;;;;;;;;;;12.10;99.90;;;;;;4944594;28;19929;-73
2022/07/02 06:15:53;;;;;;;;;;;12.20;99.90;;;;;;4939443;28;19927;-73
2022/07/02 06:18:20;;;;;;;;;;;12.20;99.90;;;;;;4937186;28;20307;-72
2022/07/02 06:20:51;;;;;;;;;;;12.30;99.90;;;;;;4944711;29;19970;-73
2022/07/02 06:23:23;;;;;;;;;;;12.30;99.90;;;;;;4945096;28;20660;-73
2022/07/02 06:25:49;;;;;;;;;;;12.40;99.90;;;;;;4932763;28;19927;-72
2022/07/02 06:28:21;;;;;;;;;;;12.40;99.90;;;;;;4939047;29;19927;-72
2022/07/02 06:30:53;;;;;;;;;;;12.50;99.90;;;;;;4959956;28;19930;-72
2022/07/02 06:33:24;;;;;;;;;;;12.60;99.90;;;;;;4939351;29;19923;-72
2022/07/02 06:35:51;;;;;;;;;;;12.70;99.90;;;;;;4933697;28;19926;-73
2022/07/02 06:38:23;;;;;;;;;;;12.90;99.90;;;;;;4950155;29;19923;-72
2022/07/02 06:40:58;;;;;;;;;;;13.10;99.90;;;;;;4942710;28;19928;-72
2022/07/02 06:43:29;;;;;;;;;;;13.40;99.90;;;;;;4942634;28;20017;-72
2022/07/02 06:46:01;;;;;;;;;;;13.60;99.90;;;;;;4935863;29;19926;-72
2022/07/02 06:48:28;;;;;;;;;;;13.80;99.90;;;;;;4949122;29;19923;-72
2022/07/02 06:50:59;;;;;;;;;;;13.90;99.90;;;;;;4940167;29;20299;-72
2022/07/02 06:53:31;;;;;;;;;;;14.20;99.90;;;;;;4950631;29;19922;-72
2022/07/02 06:55:57;;;;;;;;;;;14.30;99.90;;;;;;4939687;28;20539;-72
2022/07/02 06:58:29;;;;;;;;;;;14.50;99.90;;;;;;4938198;29;19923;-72
2022/07/02 07:01:01;;;;;;;;;;;14.60;99.90;;;;;;4949611;29;19926;-72
2022/07/02 07:03:32;;;;;;;;;;;14.80;99.90;;;;;;4941985;29;19978;-72
2022/07/02 07:06:04;;;;;;;;;;;14.90;99.90;;;;;;4936007;28;19923;-72
2022/07/02 07:08:30;;;;;;;;;;;15.10;99.90;;;;;;4935595;29;19927;-72
2022/07/02 07:11:02;;;;;;;;;;;15.20;99.90;;;;;;4935379;29;20291;-72
2022/07/02 07:13:34;;;;;;;;;;;15.40;99.90;;;;;;4937929;29;20372;-72
2022/07/02 07:16:05;;;;;;;;;;;15.50;99.90;;;;;;4948823;28;19927;-72
2022/07/02 07:18:37;;;;;;;;;;;15.60;99.90;;;;;;4937223;29;20303;-72
2022/07/02 07:21:10;;;;;;;;;;;15.70;99.90;;;;;;4943817;29;19922;-71
2022/07/02 07:23:41;;;;;;;;;;;15.80;99.90;;;;;;4935433;29;19977;-71
2022/07/02 07:26:13;;;;;;;;;;;16.00;99.90;;;;;;4947761;28;20303;-72
2022/07/02 07:28:45;;;;;;;;;;;16.10;99.90;;;;;;4939365;29;20013;-71
2022/07/02 07:31:20;;;;;;;;;;;16.20;99.90;;;;;;4939622;29;19922;-71
2022/07/02 07:33:52;;;;;;;;;;;16.30;99.90;;;;;;4940429;28;19927;-71
2022/07/02 07:36:24;;;;;;;;;;;16.50;99.90;;;;;;4921124;29;19929;-71
2022/07/02 07:38:56;;;;;;;;;;;16.60;99.90;;;;;;4920757;29;20444;-72
2022/07/02 07:41:28;;;;;;;;;;;16.70;99.90;;;;;;4938063;29;19929;-72
2022/07/02 07:44:00;;;;;;;;;;;16.90;99.90;;;;;;4935693;29;19972;-72
2022/07/02 07:46:32;;;;;;;;;;;17.00;99.90;;;;;;4932171;29;19929;-73
2022/07/02 07:49:04;;;;;;;;;;;17.10;99.90;;;;;;4950018;28;19927;-72
2022/07/02 07:51:36;;;;;;;;;;;17.20;99.90;;;;;;4949702;28;19933;-72
2022/07/02 07:54:08;;;;;;;;;;;17.30;99.90;;;;;;4939598;29;19923;-72
2022/07/02 07:56:41;;;;;;;;;;;17.40;99.90;;;;;;4934822;28;19922;-72
2022/07/02 07:59:13;;;;;;;;;;;17.50;99.90;;;;;;4944231;29;20563;-73
2022/07/02 08:01:44;;;;;;;;;;;17.60;99.90;;;;;;4949650;28;20422;-72
2022/07/02 08:04:16;;;;;;;;;;;17.70;99.90;;;;;;4947429;28;20013;-72
2022/07/02 08:06:48;;;;;;;;;;;17.80;99.90;;;;;;4944669;28;20017;-72
2022/07/02 08:09:19;;;;;;;;;;;17.90;99.90;;;;;;4941144;29;19954;-73
2022/07/02 08:11:46;;;;;;;;;;;18.00;99.90;;;;;;4938445;28;20003;-73
2022/07/02 08:14:18;;;;;;;;;;;18.10;99.90;;;;;;4949791;28;19931;-73
2022/07/02 08:16:49;;;;;;;;;;;18.20;99.90;;;;;;4937387;29;19974;-72
2022/07/02 08:19:21;;;;;;;;;;;18.30;99.90;;;;;;4940762;28;19930;-72
2022/07/02 08:21:54;;;;;;;;;;;18.40;99.90;;;;;;4942194;28;20021;-72
2022/07/02 08:24:26;;;;;;;;;;;18.40;99.90;;;;;;4952438;28;19926;-72
2022/07/02 08:26:58;;;;;;;;;;;18.40;99.90;;;;;;4937564;29;19937;-72
2022/07/02 08:29:29;;;;;;;;;;;18.50;99.90;;;;;;4938746;28;20244;-71
2022/07/02 08:32:02;;;;;;;;;;;18.50;99.90;;;;;;4938111;29;19926;-72
2022/07/02 08:34:29;;;;;;;;;;;18.60;99.90;;;;;;4935453;28;19945;-72
2022/07/02 08:37:01;;;;;;;;;;;18.70;99.90;;;;;;4934351;29;19939;-71
2022/07/02 08:39:28;;;;;;;;;;;18.80;99.90;;;;;;4939819;29;19930;-72
2022/07/02 08:41:57;;;;;;;;;;;18.80;99.90;;;;;;4935288;29;20056;-72
2022/07/02 08:44:31;;;;;;;;;;;18.90;99.90;;;;;;4928327;29;22930;-71
2022/07/02 08:47:07;;;;;;;;;;;19.00;99.90;;;;;;4944476;28;20485;-72
2022/07/02 08:49:34;;;;;;;;;;;19.20;99.90;;;;;;4932975;29;19929;-72
2022/07/02 08:52:07;;;;;;;;;;;19.30;99.90;;;;;;4938835;29;19923;-71
2022/07/02 08:54:34;;;;;;;;;;;19.30;99.90;;;;;;4933073;29;19931;-72
2022/07/02 08:57:40;;;;;;;;;;;19.40;99.90;;;;;;4930981;29;19966;-72
2022/07/02 09:00:14;;;;;;;;;;;19.50;99.90;;;;;;4926669;29;19977;-72
2022/07/02 09:02:51;;;;;;;;;;;19.60;99.90;;;;;;4942846;29;19922;-72
2022/07/02 09:05:25;;;;;;;;;;;19.70;99.90;;;;;;4943255;28;20017;-72
2022/07/02 09:07:52;;;;;;;;;;;19.80;99.90;;;;;;4943067;29;19927;-71
2022/07/02 09:10:24;;;;;;;;;;;20.00;99.90;;;;;;4946577;28;20012;-72
2022/07/02 09:12:56;;;;;;;;;;;20.10;99.90;;;;;;4924768;29;19926;-71
2022/07/02 09:15:29;;;;;;;;;;;20.20;99.90;;;;;;4937197;28;19922;-71
2022/07/02 09:18:00;;;;;;;;;;;20.30;99.90;;;;;;4928657;29;19923;-72
2022/07/02 09:20:32;;;;;;;;;;;20.40;99.90;;;;;;4944728;29;19934;-72
2022/07/02 09:22:59;;;;;;;;;;;20.50;99.90;;;;;;4941058;29;20315;-72
2022/07/02 09:25:30;;;;;;;;;;;20.60;99.90;;;;;;4936855;29;19922;-71
2022/07/02 09:28:03;;;;;;;;;;;20.80;99.90;;;;;;4942104;29;19929;-71
2022/07/02 09:30:38;;;;;;;;;;;20.80;99.90;;;;;;4938016;29;19938;-72
2022/07/02 09:33:30;;;;;;;;;;;20.90;99.90;;;;;;4941370;29;19926;-71
2022/07/02 09:36:10;;;;;;;;;;;21.00;99.90;;;;;;4933429;29;19930;-72
2022/07/02 09:38:41;;;;;;;;;;;21.00;99.90;;;;;;4944786;28;20472;-72
2022/07/02 09:41:15;;;;;;;;;;;21.20;99.90;;;;;;4934166;29;19922;-72
2022/07/02 09:43:59;;;;;;;;;;;21.30;99.90;;;;;;4947996;28;19929;-72
2022/07/02 09:46:31;;;;;;;;;;;21.40;99.90;;;;;;4927119;29;19927;-71
2022/07/02 09:49:07;;;;;;;;;;;21.40;99.90;;;;;;4953047;28;20325;-72
2022/07/02 09:51:49;;;;;;;;;;;21.60;99.90;;;;;;4934866;29;19926;-72
2022/07/02 09:54:24;;;;;;;;;;;21.60;99.90;;;;;;4955022;28;20400;-71
2022/07/02 09:56:57;;;;;;;;;;;21.70;99.90;;;;;;4933259;28;20368;-72
2022/07/02 09:59:24;;;;;;;;;;;21.80;99.90;;;;;;4936065;29;19929;-72
2022/07/02 10:01:55;;;;;;;;;;;21.80;99.90;;;;;;4943515;29;19922;-72
2022/07/02 10:04:28;;;;;;;;;;;21.80;99.90;;;;;;4941841;28;20017;-72
2022/07/02 10:06:55;;;;;;;;;;;21.90;99.90;;;;;;4952362;28;19927;-72
2022/07/02 10:09:27;;;;;;;;;;;22.10;99.90;;;;;;4941557;28;20314;-72
2022/07/02 10:11:59;;;;;;;;;;;22.20;99.90;;;;;;4954001;28;20288;-72
2022/07/02 10:14:28;;;;;;;;;;;22.30;99.90;;;;;;4940373;29;20583;-72
2022/07/02 10:16:55;;;;;;;;;;;22.40;99.90;;;;;;4933972;29;19923;-72
2022/07/02 10:19:23;;;;;;;;;;;22.50;99.90;;;;;;4942232;28;19923;-72
2022/07/02 10:21:55;;;;;;;;;;;22.60;99.90;;;;;;4945131;29;19922;-72
2022/07/02 10:24:27;;;;;;;;;;;22.70;99.90;;;;;;4933720;29;19929;-72
2022/07/02 10:26:59;;;;;;;;;;;22.80;99.90;;;;;;4951169;28;19930;-72
2022/07/02 10:29:31;;;;;;;;;;;22.90;99.90;;;;;;4918914;29;19973;-72
2022/07/02 10:32:21;;;;;;;;;;;23.00;99.90;;;;;;4937066;29;19958;-72
2022/07/02 10:34:59;;;;;;;;;;;23.00;99.90;;;;;;4930460;29;20379;-72
2022/07/02 10:37:31;;;;;;;;;;;23.00;99.90;;;;;;4935417;29;19933;-72
2022/07/02 10:40:03;;;;;;;;;;;23.00;99.90;;;;;;4949854;28;19927;-72
2022/07/02 10:42:40;;;;;;;;;;;23.10;99.90;;;;;;4936185;29;20315;-72
2022/07/02 10:45:14;;;;;;;;;;;23.20;99.90;;;;;;4930513;29;19937;-72
2022/07/02 10:48:00;;;;;;;;;;;23.20;99.90;;;;;;4924058;29;19965;-72
2022/07/02 10:50:35;;;;;;;;;;;23.30;99.90;;;;;;4940813;28;20471;-72
2022/07/02 10:53:07;;;;;;;;;;;23.30;99.90;;;;;;4955151;28;19972;-72
2022/07/02 10:55:43;;;;;;;;;;;23.40;99.90;;;;;;4951446;28;20026;-72
2022/07/02 10:58:19;;;;;;;;;;;23.50;99.90;;;;;;4941890;29;20401;-72
2022/07/02 11:00:51;;;;;;;;;;;23.60;99.90;;;;;;4956745;28;19933;-72
2022/07/02 11:03:24;;;;;;;;;;;23.70;99.90;;;;;;4942188;29;19922;-72
2022/07/02 11:06:01;;;;;;;;;;;23.80;99.90;;;;;;4937380;28;20048;-72
2022/07/02 11:08:37;;;;;;;;;;;23.90;99.90;;;;;;4936029;29;19956;-72
2022/07/02 11:11:13;;;;;;;;;;;24.00;99.90;;;;;;4940814;29;20439;-72
2022/07/02 11:13:50;;;;;;;;;;;24.00;99.90;;;;;;4936813;29;20131;-73
2022/07/02 11:16:30;;;;;;;;;;;24.00;99.90;;;;;;4923424;29;20784;-72
2022/07/02 11:19:02;;;;;;;;;;;24.10;99.90;;;;;;4951567;28;19933;-73
2022/07/02 11:21:38;;;;;;;;;;;24.20;99.90;;;;;;4944985;29;19954;-73
2022/07/02 11:24:12;;;;;;;;;;;24.30;98.20;;;;;;4940658;28;20363;-72
2022/07/02 11:26:45;;;;;;;;;;;24.30;99.70;;;;;;4931696;29;19933;-73
2022/07/02 11:29:17;;;;;;;;;;;24.40;99.80;;;;;;4935352;29;20355;-73
2022/07/02 11:31:50;;;;;;;;;;;24.50;98.70;;;;;;4952557;29;19922;-73
2022/07/02 11:34:23;;;;;;;;;;;24.50;98.10;;;;;;4936454;28;19932;-73
2022/07/02 11:36:55;;;;;;;;;;;24.50;97.90;;;;;;4936551;29;19926;-72
2022/07/02 11:39:27;;;;;;;;;;;24.50;97.70;;;;;;4959712;28;20472;-73
2022/07/02 11:41:59;;;;;;;;;;;24.60;98.20;;;;;;4946681;28;19922;-73
2022/07/02 11:44:31;;;;;;;;;;;24.80;97.90;;;;;;4942769;28;19933;-73
2022/07/02 11:47:02;;;;;;;;;;;24.80;97.00;;;;;;4944232;29;20027;-73
2022/07/02 11:49:38;;;;;;;;;;;24.90;95.50;;;;;;4938869;29;20364;-72
2022/07/02 11:52:10;;;;;;;;;;;25.00;96.60;;;;;;4934831;29;19922;-73
2022/07/02 11:54:41;;;;;;;;;;;25.10;97.10;;;;;;4930831;29;19933;-73
2022/07/02 11:57:08;;;;;;;;;;;25.20;94.90;;;;;;4936256;29;19923;-73
2022/07/02 11:59:40;;;;;;;;;;;25.20;95.00;;;;;;4935557;29;19949;-74
2022/07/02 12:02:07;;;;;;;;;;;25.30;94.10;;;;;;4932730;29;19929;-75
2022/07/02 12:04:39;;;;;;;;;;;25.20;94.40;;;;;;4928204;29;20016;-74
2022/07/02 12:07:11;;;;;;;;;;;25.30;94.30;;;;;;4950972;28;20017;-74
2022/07/02 12:09:42;;;;;;;;;;;25.40;94.50;;;;;;4929115;29;19927;-74
2022/07/02 12:12:14;;;;;;;;;;;25.50;94.70;;;;;;4954057;28;19946;-74
2022/07/02 12:14:49;;;;;;;;;;;25.50;94.10;;;;;;4945283;28;20022;-74
2022/07/02 12:17:21;;;;;;;;;;;25.60;93.90;;;;;;4931302;29;19923;-74
2022/07/02 12:19:53;;;;;;;;;;;25.70;91.70;;;;;;4930205;29;19931;-74
2022/07/02 12:22:23;;;;;;;;;;;25.70;91.60;;;;;;4953885;28;19922;-75
2022/07/02 12:24:51;;;;;;;;;;;25.80;92.00;;;;;;4946157;28;19933;-74
2022/07/02 12:27:24;;;;;;;;;;;25.80;91.70;;;;;;4943903;29;20034;-76
2022/07/02 12:29:56;;;;;;;;;;;25.90;88.70;;;;;;4936487;29;19963;-73
2022/07/02 12:32:28;;;;;;;;;;;25.90;88.80;;;;;;4952866;28;19927;-74
2022/07/02 12:34:57;;;;;;;;;;;26.00;90.40;;;;;;4946680;28;19969;-73
2022/07/02 12:37:29;;;;;;;;;;;26.00;90.60;;;;;;4928109;29;20733;-75
2022/07/02 12:40:09;;;;;;;;;;;26.20;87.40;;;;;;4941283;29;19923;-71
2022/07/02 12:42:48;;;;;;;;;;;26.20;87.00;;;;;;4942946;29;20396;-73
2022/07/02 12:45:24;;;;;;;;;;;26.30;88.80;;;;;;4935695;28;19985;-73
2022/07/02 12:48:14;;;;;;;;;;;26.40;87.60;;;;;;4936857;29;19926;-72
2022/07/02 12:50:42;;;;;;;;;;;26.50;89.20;;;;;;4925557;29;19929;-73
2022/07/02 12:53:10;;;;;;;;;;;26.50;85.10;;;;;;4939758;28;19930;-73
2022/07/02 12:55:43;;;;;;;;;;;26.50;82.90;;;;;;4923759;29;20301;-72
2022/07/02 12:58:16;;;;;;;;;;;26.60;81.50;;;;;;4952104;28;20330;-73
2022/07/02 13:00:48;;;;;;;;;;;26.60;82.30;;;;;;4936396;28;19926;-73
2022/07/02 13:03:22;;;;;;;;;;;26.60;83.50;;;;;;4943033;29;19932;-73
2022/07/02 13:05:54;;;;;;;;;;;26.70;84.50;;;;;;4919752;29;19926;-73
2022/07/02 13:08:26;;;;;;;;;;;26.90;82.60;;;;;;4937389;29;20009;-73
2022/07/02 13:10:53;;;;;;;;;;;26.90;81.10;;;;;;4933896;29;19927;-73
2022/07/02 13:13:21;;;;;;;;;;;27.00;80.30;;;;;;4933662;29;19930;-73
2022/07/02 13:15:53;;;;;;;;;;;27.10;81.30;;;;;;4930961;29;19937;-73
2022/07/02 13:18:24;;;;;;;;;;;27.10;79.30;;;;;;4958365;28;19970;-73
2022/07/02 13:20:51;;;;;;;;;;;27.10;80.70;;;;;;4946110;28;19934;-73
2022/07/02 13:23:18;;;;;;;;;;;27.20;78.80;;;;;;4945733;29;20026;-73
2022/07/02 13:25:45;;;;;;;;;;;27.30;77.40;;;;;;4955837;28;20018;-72
2022/07/02 13:28:11;;;;;;;;;;;27.40;79.40;;;;;;4939934;29;19965;-73
2022/07/02 13:30:38;;;;;;;;;;;27.50;76.80;;;;;;4943978;28;19923;-73
2022/07/02 13:33:10;;;;;;;;;;;27.50;75.50;;;;;;4943060;28;19929;-73
2022/07/02 13:35:41;;;;;;;;;;;27.60;75.80;;;;;;4941592;28;20001;-73
2022/07/02 13:38:13;;;;;;;;;;;27.60;73.50;;;;;;4945093;29;19961;-73
2022/07/02 13:40:45;;;;;;;;;;;27.60;75.90;;;;;;4928292;29;20312;-73
2022/07/02 13:43:11;;;;;;;;;;;27.70;75.90;;;;;;4946040;28;19923;-73
2022/07/02 13:45:38;;;;;;;;;;;27.70;73.40;;;;;;4941090;28;20371;-72
2022/07/02 13:48:09;;;;;;;;;;;27.80;74.90;;;;;;4946199;28;19923;-73
2022/07/02 13:50:54;;;;;;;;;;;27.90;74.30;;;;;;4935424;29;19926;-73
2022/07/02 13:53:25;;;;;;;;;;;27.90;73.10;;;;;;4958514;28;19934;-73
2022/07/02 13:55:52;;;;;;;;;;;28.00;74.90;;;;;;4945734;28;20395;-73
2022/07/02 13:58:24;;;;;;;;;;;28.10;72.30;;;;;;4932091;29;19931;-73
2022/07/02 14:00:55;;;;;;;;;;;28.10;71.00;;;;;;4943685;29;19950;-73
2022/07/02 14:03:22;;;;;;;;;;;28.00;70.10;;;;;;4934422;29;19922;-73
2022/07/02 14:05:53;;;;;;;;;;;28.10;69.50;;;;;;4944999;28;19930;-73
2022/07/02 14:08:25;;;;;;;;;;;28.20;71.20;;;;;;4925479;29;19927;-73
2022/07/02 14:10:57;;;;;;;;;;;28.20;71.60;;;;;;4933496;29;19965;-73
2022/07/02 14:13:28;;;;;;;;;;;28.30;69.20;;;;;;4934412;29;20288;-72
2022/07/02 14:16:00;;;;;;;;;;;28.50;69.80;;;;;;4932623;29;19923;-73
2022/07/02 14:18:32;;;;;;;;;;;28.50;70.60;;;;;;4952903;28;20009;-73
2022/07/02 14:21:04;;;;;;;;;;;28.70;68.80;;;;;;4940085;29;19961;-72
2022/07/02 14:23:36;;;;;;;;;;;28.70;68.30;;;;;;4939359;28;20009;-73
2022/07/02 14:26:07;;;;;;;;;;;28.80;68.40;;;;;;4935670;29;19923;-73
2022/07/02 14:28:35;;;;;;;;;;;28.90;67.10;;;;;;4941953;29;20013;-73
2022/07/02 14:31:06;;;;;;;;;;;28.90;66.50;;;;;;4943074;28;19945;-72
2022/07/02 14:33:38;;;;;;;;;;;28.80;65.40;;;;;;4944984;29;20017;-73
2022/07/02 14:36:10;;;;;;;;;;;28.70;64.60;;;;;;4920373;29;19929;-72
2022/07/02 14:38:41;;;;;;;;;;;28.80;65.20;;;;;;4939132;29;19922;-72
2022/07/02 14:41:32;;;;;;;;;;;28.90;66.40;;;;;;4930477;28;19997;-72
2022/07/02 14:44:03;;;;;;;;;;;29.10;65.90;;;;;;4955293;28;19930;-73
2022/07/02 14:46:35;;;;;;;;;;;29.00;64.40;;;;;;4935787;29;20405;-72
2022/07/02 14:49:02;;;;;;;;;;;29.20;66.10;;;;;;4939531;29;19930;-72
2022/07/02 14:51:34;;;;;;;;;;;29.30;65.00;;;;;;4939728;29;20484;-72